Time;durP1;ratioP1;P1;durP2;ratioP2;P2;SDS_P1;SDS_P2;PMS_P1;PMS_P2;Temp;Humidity;BMP_temperature;BMP_pressure;BME280_temperature;BME280_humidity;BME280_pressure;Samples;Min_cycle;Max_cycle;Signal;HPM_P1;HPM_P2
2024/03/13 00:00:04;;;;;;;12.20;6.43;;;;;;;;;;692995;28;1085;-66
2024/03/13 00:00:34;;;;;;;11.45;6.28;;;;;;;;;;695988;28;735;-67
2024/03/13 00:00:55;;;;;;;11.75;5.97;;;;;;;;;;695580;28;2591;-67
2024/03/13 00:01:15;;;;;;;10.53;6.03;;;;;;;;;;696933;28;830;-67
2024/03/13 00:01:36;;;;;;;11.45;6.55;;;;;;;;;;696231;28;1353;-68
2024/03/13 00:01:56;;;;;;;10.73;6.18;;;;;;;;;;694936;28;4509;-67
2024/03/13 00:02:17;;;;;;;10.90;6.40;;;;;;;;;;695698;28;1018;-68
2024/03/13 00:02:37;;;;;;;11.63;6.77;;;;;;;;;;697497;28;996;-67
2024/03/13 00:02:58;;;;;;;12.70;6.53;;;;;;;;;;695952;28;4280;-67
2024/03/13 00:03:18;;;;;;;12.70;6.57;;;;;;;;;;696890;28;1046;-67
2024/03/13 00:03:39;;;;;;;12.03;6.60;;;;;;;;;;699903;28;920;-67
2024/03/13 00:04:00;;;;;;;11.43;6.40;;;;;;;;;;696565;28;1312;-67
2024/03/13 00:04:20;;;;;;;12.13;6.30;;;;;;;;;;697431;28;904;-67
2024/03/13 00:04:43;;;;;;;12.27;6.10;;;;;;;;;;697485;28;944;-68
2024/03/13 00:05:04;;;;;;;11.07;6.30;;;;;;;;;;695700;28;4301;-67
2024/03/13 00:05:24;;;;;;;11.77;6.40;;;;;;;;;;696512;28;958;-68
2024/03/13 00:05:47;;;;;;;11.70;6.47;;;;;;;;;;695550;28;1003;-69
2024/03/13 00:06:10;;;;;;;12.63;6.28;;;;;;;;;;696477;28;901;-68
2024/03/13 00:06:30;;;;;;;11.43;6.05;;;;;;;;;;696512;28;1961;-68
2024/03/13 00:06:51;;;;;;;10.53;6.13;;;;;;;;;;696873;28;1642;-68
2024/03/13 00:07:11;;;;;;;11.00;6.10;;;;;;;;;;692178;28;1421;-67
2024/03/13 00:07:31;;;;;;;10.98;5.88;;;;;;;;;;689633;28;1396;-68
2024/03/13 00:07:52;;;;;;;10.20;6.07;;;;;;;;;;689161;28;1029;-68
2024/03/13 00:08:13;;;;;;;11.35;6.10;;;;;;;;;;687588;28;4242;-68
2024/03/13 00:08:33;;;;;;;10.63;6.07;;;;;;;;;;689680;28;798;-68
2024/03/13 00:08:54;;;;;;;10.43;5.77;;;;;;;;;;684476;28;1891;-68
2024/03/13 00:09:17;;;;;;;10.05;5.70;;;;;;;;;;687976;28;1353;-68
2024/03/13 00:09:46;;;;;;;11.50;6.00;;;;;;;;;;687882;28;1345;-68
2024/03/13 00:10:08;;;;;;;11.18;5.65;;;;;;;;;;689058;28;916;-68
2024/03/13 00:10:28;;;;;;;10.27;5.35;;;;;;;;;;690782;28;830;-67
2024/03/13 00:10:49;;;;;;;10.17;5.30;;;;;;;;;;691375;28;1793;-69
2024/03/13 00:11:10;;;;;;;9.30;5.28;;;;;;;;;;695690;28;4274;-67
2024/03/13 00:11:30;;;;;;;9.13;5.40;;;;;;;;;;697891;28;912;-68
2024/03/13 00:11:50;;;;;;;9.57;5.37;;;;;;;;;;696226;28;1086;-68
2024/03/13 00:12:16;;;;;;;10.00;5.50;;;;;;;;;;696373;28;857;-67
2024/03/13 00:12:36;;;;;;;9.30;5.50;;;;;;;;;;696574;28;1077;-68
2024/03/13 00:12:57;;;;;;;9.70;5.67;;;;;;;;;;696944;28;1010;-68
2024/03/13 00:13:17;;;;;;;10.50;6.00;;;;;;;;;;698275;28;896;-68
2024/03/13 00:13:38;;;;;;;11.17;6.03;;;;;;;;;;698327;28;1105;-67
2024/03/13 00:13:58;;;;;;;10.53;5.70;;;;;;;;;;695487;28;4433;-68
2024/03/13 00:14:18;;;;;;;10.35;5.50;;;;;;;;;;697969;28;1086;-68
2024/03/13 00:14:39;;;;;;;9.37;5.60;;;;;;;;;;698239;28;928;-67
2024/03/13 00:14:59;;;;;;;10.00;5.93;;;;;;;;;;695772;28;962;-68
2024/03/13 00:15:19;;;;;;;9.98;5.43;;;;;;;;;;696204;28;873;-67
2024/03/13 00:15:39;;;;;;;10.00;5.57;;;;;;;;;;699063;28;1128;-68
2024/03/13 00:16:00;;;;;;;9.70;5.77;;;;;;;;;;692793;28;980;-68
2024/03/13 00:16:20;;;;;;;9.85;5.68;;;;;;;;;;696081;28;931;-68
2024/03/13 00:16:41;;;;;;;9.93;5.70;;;;;;;;;;692980;28;1004;-69
2024/03/13 00:17:01;;;;;;;10.55;5.88;;;;;;;;;;686004;28;4415;-67
2024/03/13 00:17:22;;;;;;;9.33;5.70;;;;;;;;;;689983;28;898;-67
2024/03/13 00:17:44;;;;;;;10.15;5.82;;;;;;;;;;691328;28;984;-68
2024/03/13 00:18:05;;;;;;;9.88;5.38;;;;;;;;;;693965;28;1025;-68
2024/03/13 00:18:25;;;;;;;10.07;6.00;;;;;;;;;;696050;28;825;-68
2024/03/13 00:18:45;;;;;;;9.93;6.07;;;;;;;;;;698300;28;1378;-68
2024/03/13 00:19:09;;;;;;;10.25;5.97;;;;;;;;;;699501;28;998;-67
2024/03/13 00:19:29;;;;;;;9.95;5.60;;;;;;;;;;700142;28;1189;-68
2024/03/13 00:19:50;;;;;;;10.85;5.25;;;;;;;;;;699792;28;1082;-68
2024/03/13 00:20:14;;;;;;;9.82;5.78;;;;;;;;;;700275;28;4396;-67
2024/03/13 00:20:35;;;;;;;9.93;5.80;;;;;;;;;;698854;28;833;-68
2024/03/13 00:20:55;;;;;;;10.60;5.90;;;;;;;;;;695919;28;1381;-68
2024/03/13 00:21:15;;;;;;;10.60;5.87;;;;;;;;;;693797;28;1303;-68
2024/03/13 00:21:35;;;;;;;9.20;5.43;;;;;;;;;;693819;28;948;-67
2024/03/13 00:21:56;;;;;;;11.03;5.87;;;;;;;;;;693288;28;1107;-68
2024/03/13 00:22:20;;;;;;;9.70;5.60;;;;;;;;;;693564;28;855;-69
2024/03/13 00:22:40;;;;;;;11.23;5.72;;;;;;;;;;690342;28;984;-69
2024/03/13 00:23:03;;;;;;;10.47;5.83;;;;;;;;;;692330;28;4436;-68
2024/03/13 00:23:23;;;;;;;9.77;5.55;;;;;;;;;;695144;28;858;-67
2024/03/13 00:23:44;;;;;;;9.77;5.57;;;;;;;;;;693947;28;793;-68
2024/03/13 00:24:04;;;;;;;10.57;5.72;;;;;;;;;;694111;28;1139;-69
2024/03/13 00:24:24;;;;;;;10.23;5.70;;;;;;;;;;695370;28;1551;-68
2024/03/13 00:24:48;;;;;;;9.53;5.60;;;;;;;;;;700539;28;873;-68
2024/03/13 00:25:11;;;;;;;9.48;5.25;;;;;;;;;;698972;28;1183;-69
2024/03/13 00:25:34;;;;;;;10.18;5.43;;;;;;;;;;699843;28;972;-68
2024/03/13 00:25:56;;;;;;;10.07;5.57;;;;;;;;;;697811;28;4298;-68
2024/03/13 00:26:16;;;;;;;10.35;5.53;;;;;;;;;;697974;28;1436;-68
2024/03/13 00:26:37;;;;;;;9.82;5.70;;;;;;;;;;697156;28;1974;-68
2024/03/13 00:26:57;;;;;;;10.10;5.93;;;;;;;;;;696047;28;997;-68
2024/03/13 00:27:20;;;;;;;10.25;5.40;;;;;;;;;;697598;28;991;-68
2024/03/13 00:27:41;;;;;;;10.65;5.68;;;;;;;;;;696388;28;1180;-68
2024/03/13 00:28:02;;;;;;;10.98;5.90;;;;;;;;;;695382;28;1125;-68
2024/03/13 00:28:22;;;;;;;9.40;5.78;;;;;;;;;;697439;28;873;-68
2024/03/13 00:28:42;;;;;;;9.80;5.67;;;;;;;;;;695477;28;996;-68
2024/03/13 00:29:04;;;;;;;8.97;5.33;;;;;;;;;;696902;28;4609;-68
2024/03/13 00:29:27;;;;;;;9.00;5.47;;;;;;;;;;696823;28;975;-67
2024/03/13 00:29:48;;;;;;;10.02;5.68;;;;;;;;;;696844;28;940;-67
2024/03/13 00:30:08;;;;;;;9.87;5.97;;;;;;;;;;696948;28;981;-68
2024/03/13 00:30:29;;;;;;;9.37;5.57;;;;;;;;;;699146;28;1064;-69
2024/03/13 00:30:49;;;;;;;9.10;5.57;;;;;;;;;;699805;28;1134;-69
2024/03/13 00:31:10;;;;;;;8.98;5.75;;;;;;;;;;700445;28;1135;-68
2024/03/13 00:31:30;;;;;;;10.10;5.80;;;;;;;;;;698431;28;982;-69
2024/03/13 00:31:53;;;;;;;9.00;5.33;;;;;;;;;;695028;28;959;-68
2024/03/13 00:32:15;;;;;;;9.95;5.50;;;;;;;;;;696636;28;6033;-68
2024/03/13 00:32:35;;;;;;;9.60;5.50;;;;;;;;;;694629;28;984;-68
2024/03/13 00:32:55;;;;;;;8.60;4.90;;;;;;;;;;691595;28;1257;-67
2024/03/13 00:33:16;;;;;;;9.30;5.28;;;;;;;;;;691660;28;853;-68
2024/03/13 00:33:38;;;;;;;8.63;5.22;;;;;;;;;;694096;28;1004;-68
2024/03/13 00:34:00;;;;;;;9.95;5.60;;;;;;;;;;693557;28;1046;-69
2024/03/13 00:34:20;;;;;;;9.43;5.50;;;;;;;;;;696308;28;1267;-69
2024/03/13 00:34:43;;;;;;;8.97;5.30;;;;;;;;;;697942;28;1152;-68
2024/03/13 00:35:04;;;;;;;8.57;5.40;;;;;;;;;;696769;28;4419;-68
2024/03/13 00:35:25;;;;;;;9.27;5.38;;;;;;;;;;695989;28;2303;-69
2024/03/13 00:35:45;;;;;;;9.35;5.35;;;;;;;;;;696108;28;3606;-67
2024/03/13 00:36:07;;;;;;;8.50;4.70;;;;;;;;;;696068;28;1112;-68
2024/03/13 00:36:28;;;;;;;8.57;4.82;;;;;;;;;;695304;28;1384;-68
2024/03/13 00:36:48;;;;;;;8.88;5.20;;;;;;;;;;695999;28;1163;-68
2024/03/13 00:37:09;;;;;;;9.23;5.23;;;;;;;;;;696565;28;2288;-68
2024/03/13 00:37:29;;;;;;;8.85;5.05;;;;;;;;;;697001;28;971;-67
2024/03/13 00:37:49;;;;;;;8.70;4.80;;;;;;;;;;697420;28;1221;-67
2024/03/13 00:38:11;;;;;;;9.07;5.10;;;;;;;;;;696397;28;4290;-67
2024/03/13 00:38:33;;;;;;;8.63;5.50;;;;;;;;;;696926;28;873;-67
2024/03/13 00:38:53;;;;;;;8.65;5.13;;;;;;;;;;692992;28;1883;-68
2024/03/13 00:39:14;;;;;;;9.55;5.40;;;;;;;;;;695688;28;817;-68
2024/03/13 00:39:35;;;;;;;10.20;5.43;;;;;;;;;;694203;28;1047;-69
2024/03/13 00:39:58;;;;;;;9.20;5.23;;;;;;;;;;695028;28;2267;-68
2024/03/13 00:40:18;;;;;;;9.15;5.22;;;;;;;;;;699185;28;932;-66
2024/03/13 00:40:39;;;;;;;9.73;5.07;;;;;;;;;;698641;28;927;-67
2024/03/13 00:40:59;;;;;;;9.15;5.30;;;;;;;;;;696567;28;4476;-69
2024/03/13 00:41:19;;;;;;;10.52;5.30;;;;;;;;;;697432;28;1579;-68
2024/03/13 00:41:40;;;;;;;9.47;5.17;;;;;;;;;;697605;28;825;-68
2024/03/13 00:42:02;;;;;;;8.63;5.23;;;;;;;;;;697364;28;2276;-68
2024/03/13 00:42:22;;;;;;;9.52;5.28;;;;;;;;;;694679;28;928;-68
2024/03/13 00:42:43;;;;;;;9.73;5.17;;;;;;;;;;697117;28;850;-68
2024/03/13 00:43:03;;;;;;;9.90;5.53;;;;;;;;;;695749;28;2538;-69
2024/03/13 00:43:23;;;;;;;9.90;5.17;;;;;;;;;;696457;28;991;-68
2024/03/13 00:43:44;;;;;;;9.27;5.10;;;;;;;;;;696773;28;828;-67
2024/03/13 00:44:05;;;;;;;9.33;5.00;;;;;;;;;;695393;28;4326;-68
2024/03/13 00:44:25;;;;;;;9.07;4.78;;;;;;;;;;697907;28;932;-68
2024/03/13 00:44:45;;;;;;;9.90;5.27;;;;;;;;;;696139;28;1238;-68
2024/03/13 00:45:06;;;;;;;9.37;5.17;;;;;;;;;;697244;28;967;-68
2024/03/13 00:45:27;;;;;;;8.65;5.10;;;;;;;;;;696908;28;1705;-68
2024/03/13 00:45:48;;;;;;;8.45;5.20;;;;;;;;;;697654;28;920;-68
2024/03/13 00:46:09;;;;;;;8.68;4.90;;;;;;;;;;695935;28;2095;-68
2024/03/13 00:46:29;;;;;;;9.07;5.20;;;;;;;;;;694286;28;2069;-68
2024/03/13 00:46:50;;;;;;;8.80;4.93;;;;;;;;;;696053;28;960;-68
2024/03/13 00:47:14;;;;;;;8.57;5.20;;;;;;;;;;694912;28;5259;-67
2024/03/13 00:47:35;;;;;;;8.85;5.20;;;;;;;;;;697478;28;913;-68
2024/03/13 00:47:55;;;;;;;8.80;5.10;;;;;;;;;;695871;28;1483;-68
2024/03/13 00:48:17;;;;;;;8.40;4.90;;;;;;;;;;696788;28;975;-69
2024/03/13 00:48:38;;;;;;;9.52;5.00;;;;;;;;;;697981;28;1074;-67
2024/03/13 00:48:58;;;;;;;10.10;4.97;;;;;;;;;;695103;28;1780;-68
2024/03/13 00:49:18;;;;;;;9.20;5.20;;;;;;;;;;697772;28;943;-67
2024/03/13 00:49:42;;;;;;;8.60;5.20;;;;;;;;;;697099;28;1045;-67
2024/03/13 00:50:07;;;;;;;9.13;4.97;;;;;;;;;;694239;28;4258;-68
2024/03/13 00:50:27;;;;;;;9.07;5.00;;;;;;;;;;697023;28;983;-68
2024/03/13 00:50:48;;;;;;;8.80;5.27;;;;;;;;;;697770;28;817;-68
2024/03/13 00:51:09;;;;;;;8.57;5.10;;;;;;;;;;697324;28;1979;-68
2024/03/13 00:51:31;;;;;;;8.27;4.80;;;;;;;;;;695996;28;994;-67
2024/03/13 00:51:51;;;;;;;9.23;4.93;;;;;;;;;;695536;28;1726;-68
2024/03/13 00:52:11;;;;;;;8.20;4.90;;;;;;;;;;696810;28;809;-69
2024/03/13 00:52:32;;;;;;;8.88;5.03;;;;;;;;;;697498;28;950;-68
2024/03/13 00:52:53;;;;;;;8.90;5.23;;;;;;;;;;695640;28;1826;-68
2024/03/13 00:53:16;;;;;;;9.18;5.18;;;;;;;;;;697666;28;4487;-68
2024/03/13 00:53:38;;;;;;;9.25;4.85;;;;;;;;;;698456;28;1087;-67
2024/03/13 00:53:59;;;;;;;8.93;4.90;;;;;;;;;;695656;28;1998;-69
2024/03/13 00:54:20;;;;;;;9.00;5.10;;;;;;;;;;697299;28;917;-68
2024/03/13 00:54:44;;;;;;;8.52;4.90;;;;;;;;;;696575;28;1140;-69
2024/03/13 00:55:10;;;;;;;8.77;5.05;;;;;;;;;;693078;28;2026;-68
2024/03/13 00:55:30;;;;;;;9.57;5.13;;;;;;;;;;690839;28;854;-68
2024/03/13 00:55:50;;;;;;;8.88;5.00;;;;;;;;;;693782;28;872;-68
2024/03/13 00:56:15;;;;;;;9.33;4.90;;;;;;;;;;692168;28;4289;-68
2024/03/13 00:56:36;;;;;;;9.90;4.90;;;;;;;;;;694250;28;1293;-68
2024/03/13 00:56:57;;;;;;;8.73;5.00;;;;;;;;;;694806;28;1992;-67
2024/03/13 00:57:18;;;;;;;8.45;4.97;;;;;;;;;;694676;28;913;-68
2024/03/13 00:57:41;;;;;;;7.93;4.75;;;;;;;;;;700368;28;986;-68
2024/03/13 00:58:01;;;;;;;8.48;5.00;;;;;;;;;;697357;28;1779;-67
2024/03/13 00:58:22;;;;;;;7.95;4.90;;;;;;;;;;695304;28;1457;-69
2024/03/13 00:58:42;;;;;;;9.50;5.27;;;;;;;;;;695455;28;789;-68
2024/03/13 00:59:05;;;;;;;9.38;5.10;;;;;;;;;;692285;28;4338;-68
2024/03/13 00:59:27;;;;;;;8.85;4.88;;;;;;;;;;695538;28;813;-68
2024/03/13 00:59:47;;;;;;;9.60;5.20;;;;;;;;;;695851;28;979;-68
2024/03/13 01:00:09;;;;;;;8.90;4.97;;;;;;;;;;694911;28;1739;-68
2024/03/13 01:00:34;;;;;;;8.93;4.85;;;;;;;;;;695816;28;980;-68
2024/03/13 01:00:55;;;;;;;8.80;4.88;;;;;;;;;;693362;28;1559;-68
2024/03/13 01:01:17;;;;;;;8.50;4.97;;;;;;;;;;693793;28;850;-67
2024/03/13 01:01:40;;;;;;;7.97;4.90;;;;;;;;;;695296;28;951;-68
2024/03/13 01:02:01;;;;;;;8.13;4.78;;;;;;;;;;691929;28;4452;-68
2024/03/13 01:02:22;;;;;;;9.07;5.18;;;;;;;;;;694421;28;1424;-68
2024/03/13 01:02:42;;;;;;;9.15;5.10;;;;;;;;;;694316;28;874;-67
2024/03/13 01:03:03;;;;;;;8.47;4.63;;;;;;;;;;695860;28;1683;-68
2024/03/13 01:03:25;;;;;;;9.20;4.82;;;;;;;;;;695312;28;829;-68
2024/03/13 01:03:47;;;;;;;9.50;5.10;;;;;;;;;;688951;28;932;-68
2024/03/13 01:04:11;;;;;;;9.60;5.10;;;;;;;;;;689385;28;1449;-69
2024/03/13 01:04:35;;;;;;;8.82;5.20;;;;;;;;;;689513;28;1417;-68
2024/03/13 01:04:55;;;;;;;9.25;4.93;;;;;;;;;;691337;28;4319;-67
2024/03/13 01:05:16;;;;;;;9.43;5.00;;;;;;;;;;692430;28;805;-69
2024/03/13 01:05:37;;;;;;;9.45;4.97;;;;;;;;;;692528;28;991;-67
2024/03/13 01:05:59;;;;;;;8.23;4.63;;;;;;;;;;695326;28;1026;-68
2024/03/13 01:06:20;;;;;;;8.68;4.50;;;;;;;;;;693592;28;873;-68
2024/03/13 01:06:40;;;;;;;8.63;4.43;;;;;;;;;;692111;28;1958;-68
2024/03/13 01:07:01;;;;;;;8.30;4.85;;;;;;;;;;692056;28;998;-68
2024/03/13 01:07:22;;;;;;;7.80;4.53;;;;;;;;;;686024;28;1135;-69
2024/03/13 01:07:43;;;;;;;8.70;4.65;;;;;;;;;;685673;28;1004;-68
2024/03/13 01:08:04;;;;;;;9.73;5.00;;;;;;;;;;684269;28;4545;-70
2024/03/13 01:08:25;;;;;;;8.35;5.15;;;;;;;;;;688874;28;866;-68
2024/03/13 01:08:50;;;;;;;8.43;4.90;;;;;;;;;;693625;28;877;-68
2024/03/13 01:09:11;;;;;;;7.95;4.40;;;;;;;;;;692851;28;1145;-68
2024/03/13 01:09:32;;;;;;;8.18;4.65;;;;;;;;;;696224;28;972;-69
2024/03/13 01:09:53;;;;;;;8.20;4.57;;;;;;;;;;697136;28;917;-69
2024/03/13 01:10:14;;;;;;;8.07;4.90;;;;;;;;;;696861;28;1165;-68
2024/03/13 01:10:39;;;;;;;8.20;4.68;;;;;;;;;;697316;28;825;-67
2024/03/13 01:11:00;;;;;;;8.48;4.68;;;;;;;;;;692285;28;4317;-68
2024/03/13 01:11:22;;;;;;;9.27;4.90;;;;;;;;;;691602;28;816;-68
2024/03/13 01:11:42;;;;;;;10.63;5.03;;;;;;;;;;692056;28;1004;-67
2024/03/13 01:12:05;;;;;;;9.18;4.88;;;;;;;;;;689025;28;1483;-68
2024/03/13 01:12:26;;;;;;;8.00;4.60;;;;;;;;;;691779;28;1527;-68
2024/03/13 01:12:49;;;;;;;8.33;4.53;;;;;;;;;;692354;28;826;-68
2024/03/13 01:13:10;;;;;;;7.82;4.60;;;;;;;;;;692440;28;986;-68
2024/03/13 01:13:32;;;;;;;8.50;4.55;;;;;;;;;;691052;28;1255;-68
2024/03/13 01:13:55;;;;;;;8.35;4.63;;;;;;;;;;691444;28;1447;-70
2024/03/13 01:14:19;;;;;;;8.93;5.00;;;;;;;;;;691143;28;5066;-68
2024/03/13 01:14:40;;;;;;;7.95;4.55;;;;;;;;;;693962;28;850;-69
2024/03/13 01:15:02;;;;;;;8.30;4.45;;;;;;;;;;692404;28;1023;-68
2024/03/13 01:15:23;;;;;;;8.65;4.65;;;;;;;;;;693962;28;858;-69
2024/03/13 01:15:45;;;;;;;8.20;4.60;;;;;;;;;;695750;28;905;-68
2024/03/13 01:16:07;;;;;;;9.00;4.63;;;;;;;;;;693722;28;1695;-68
2024/03/13 01:16:30;;;;;;;9.25;4.80;;;;;;;;;;694498;28;877;-68
2024/03/13 01:16:53;;;;;;;8.93;5.00;;;;;;;;;;694828;28;893;-68
2024/03/13 01:17:14;;;;;;;9.90;4.97;;;;;;;;;;696291;28;4895;-68
2024/03/13 01:17:38;;;;;;;9.50;4.88;;;;;;;;;;693801;28;1414;-68
2024/03/13 01:18:02;;;;;;;8.95;4.75;;;;;;;;;;692130;28;1022;-68
2024/03/13 01:18:24;;;;;;;8.15;4.50;;;;;;;;;;695846;28;1030;-69
2024/03/13 01:18:45;;;;;;;7.93;4.57;;;;;;;;;;691672;28;881;-68
2024/03/13 01:19:07;;;;;;;7.55;4.47;;;;;;;;;;691261;28;1462;-69
2024/03/13 01:19:33;;;;;;;8.25;4.75;;;;;;;;;;695529;28;1426;-69
2024/03/13 01:19:54;;;;;;;8.75;4.63;;;;;;;;;;697282;28;2301;-70
2024/03/13 01:20:18;;;;;;;8.00;4.57;;;;;;;;;;693359;28;4655;-69
2024/03/13 01:20:40;;;;;;;7.70;4.50;;;;;;;;;;697014;28;949;-67
2024/03/13 01:21:01;;;;;;;8.48;4.55;;;;;;;;;;694424;28;1061;-68
2024/03/13 01:21:22;;;;;;;8.65;4.50;;;;;;;;;;695260;28;842;-68
2024/03/13 01:21:42;;;;;;;9.10;4.30;;;;;;;;;;695222;28;865;-69
2024/03/13 01:22:07;;;;;;;8.20;3.90;;;;;;;;;;694534;28;906;-69
2024/03/13 01:22:28;;;;;;;8.98;4.85;;;;;;;;;;695845;28;762;-68
2024/03/13 01:22:49;;;;;;;8.55;4.85;;;;;;;;;;694858;28;1231;-68
2024/03/13 01:23:09;;;;;;;8.55;4.65;;;;;;;;;;693786;28;4404;-68
2024/03/13 01:23:31;;;;;;;8.40;4.60;;;;;;;;;;697036;28;1218;-67
2024/03/13 01:23:51;;;;;;;7.80;4.18;;;;;;;;;;696000;28;1242;-68
2024/03/13 01:24:11;;;;;;;7.90;4.40;;;;;;;;;;694012;28;1141;-68
2024/03/13 01:24:32;;;;;;;8.23;4.50;;;;;;;;;;696749;28;1418;-67
2024/03/13 01:24:52;;;;;;;7.75;4.38;;;;;;;;;;696917;28;967;-68
2024/03/13 01:25:12;;;;;;;7.93;4.50;;;;;;;;;;692092;28;942;-68
2024/03/13 01:25:33;;;;;;;8.45;4.32;;;;;;;;;;696918;28;960;-68
2024/03/13 01:25:54;;;;;;;8.33;4.50;;;;;;;;;;693643;28;4430;-68
2024/03/13 01:26:14;;;;;;;8.90;4.63;;;;;;;;;;692852;28;1472;-68
2024/03/13 01:26:35;;;;;;;8.07;4.37;;;;;;;;;;694197;28;1912;-68
2024/03/13 01:26:55;;;;;;;8.43;4.83;;;;;;;;;;691220;28;988;-68
2024/03/13 01:27:15;;;;;;;7.73;4.40;;;;;;;;;;695692;28;818;-68
2024/03/13 01:27:36;;;;;;;7.38;4.32;;;;;;;;;;691897;28;1517;-68
2024/03/13 01:27:56;;;;;;;8.32;4.70;;;;;;;;;;693844;28;1042;-68
2024/03/13 01:28:17;;;;;;;9.00;5.13;;;;;;;;;;694241;28;932;-67
2024/03/13 01:28:38;;;;;;;8.97;5.03;;;;;;;;;;694826;28;948;-69
2024/03/13 01:28:58;;;;;;;9.00;4.85;;;;;;;;;;695933;28;4403;-70
2024/03/13 01:29:18;;;;;;;8.35;4.80;;;;;;;;;;697798;28;883;-69
2024/03/13 01:29:41;;;;;;;8.40;4.70;;;;;;;;;;696834;28;1434;-68
2024/03/13 01:30:03;;;;;;;8.48;4.60;;;;;;;;;;696078;28;1017;-68
2024/03/13 01:30:23;;;;;;;8.90;4.60;;;;;;;;;;696308;28;838;-68
2024/03/13 01:30:44;;;;;;;8.97;4.60;;;;;;;;;;695404;28;956;-68
2024/03/13 01:31:08;;;;;;;9.07;4.60;;;;;;;;;;695686;28;1107;-68
2024/03/13 01:31:29;;;;;;;8.30;4.70;;;;;;;;;;696788;28;1475;-68
2024/03/13 01:31:49;;;;;;;8.70;4.80;;;;;;;;;;697280;28;2430;-68
2024/03/13 01:32:11;;;;;;;8.87;4.60;;;;;;;;;;694346;28;4323;-67
2024/03/13 01:32:33;;;;;;;8.43;4.32;;;;;;;;;;696199;28;916;-69
2024/03/13 01:32:53;;;;;;;9.02;4.75;;;;;;;;;;696945;28;1363;-69
2024/03/13 01:33:13;;;;;;;8.60;4.90;;;;;;;;;;695299;28;1861;-69
2024/03/13 01:33:34;;;;;;;8.40;4.90;;;;;;;;;;693471;28;1177;-69
2024/03/13 01:33:55;;;;;;;7.55;4.40;;;;;;;;;;692427;28;1416;-67
2024/03/13 01:34:16;;;;;;;8.10;4.53;;;;;;;;;;692369;28;964;-67
2024/03/13 01:34:36;;;;;;;8.68;4.85;;;;;;;;;;693311;28;1341;-69
2024/03/13 01:34:57;;;;;;;8.10;4.83;;;;;;;;;;693681;28;4476;-68
2024/03/13 01:35:19;;;;;;;8.10;4.60;;;;;;;;;;693719;28;928;-68
2024/03/13 01:35:39;;;;;;;7.90;4.40;;;;;;;;;;696838;28;980;-68
2024/03/13 01:35:59;;;;;;;8.30;4.60;;;;;;;;;;695377;28;2354;-68
2024/03/13 01:37:55;;;;;;;8.83;4.93;;;;;;;;;;697814;28;976;-68
2024/03/13 01:38:18;;;;;;;8.10;4.70;;;;;;;;;;694917;28;4761;-68
2024/03/13 01:38:39;;;;;;;8.63;4.90;;;;;;;;;;696608;28;1132;-69
2024/03/13 01:38:59;;;;;;;8.33;4.70;;;;;;;;;;694999;28;1808;-69
2024/03/13 01:39:20;;;;;;;8.77;4.80;;;;;;;;;;696446;28;880;-69
2024/03/13 01:39:40;;;;;;;8.43;5.03;;;;;;;;;;696720;28;4650;-69
2024/03/13 01:40:03;;;;;;;9.40;5.00;;;;;;;;;;696046;28;2146;-68
2024/03/13 01:55:28;;;;;;;8.00;4.88;;;;;;;;;;686290;28;3567;-68
2024/03/13 01:55:49;;;;;;;7.93;4.65;;;;;;;;;;686714;28;889;-69
2024/03/13 01:56:21;;;;;;;7.18;4.38;;;;;;;;;;681751;28;4343;-69
2024/03/13 01:56:57;;;;;;;9.20;4.80;;;;;;;;;;694307;28;1091;-68
2024/03/13 01:57:28;;;;;;;9.90;5.20;;;;;;;;;;696399;28;1007;-69
2024/03/13 01:58:19;;;;;;;8.55;4.47;;;;;;;;;;694958;28;901;-68
2024/03/13 01:58:41;;;;;;;7.75;4.53;;;;;;;;;;695846;28;844;-69
2024/03/13 01:59:05;;;;;;;8.90;5.00;;;;;;;;;;693302;28;4489;-69
2024/03/13 01:59:35;;;;;;;7.95;4.53;;;;;;;;;;697033;28;920;-69
2024/03/13 02:02:24;;;;;;;8.10;4.85;;;;;;;;;;690398;28;5286;-69
2024/03/13 02:02:46;;;;;;;8.23;4.63;;;;;;;;;;693331;28;900;-70
2024/03/13 02:03:10;;;;;;;8.00;4.63;;;;;;;;;;690469;28;1729;-71
2024/03/13 02:03:31;;;;;;;7.03;4.40;;;;;;;;;;691043;28;889;-69
2024/03/13 02:03:52;;;;;;;8.18;4.78;;;;;;;;;;692886;28;917;-69
2024/03/13 02:04:13;;;;;;;8.87;4.80;;;;;;;;;;686815;28;1540;-70
2024/03/13 02:04:35;;;;;;;7.55;4.40;;;;;;;;;;688907;28;841;-70
2024/03/13 02:04:56;;;;;;;8.23;4.35;;;;;;;;;;682670;28;4553;-69
2024/03/13 02:05:17;;;;;;;8.57;4.55;;;;;;;;;;686407;28;2021;-70
2024/03/13 02:05:38;;;;;;;8.38;4.90;;;;;;;;;;688106;28;876;-69
2024/03/13 02:06:01;;;;;;;7.82;4.68;;;;;;;;;;687806;28;2391;-69
2024/03/13 02:06:25;;;;;;;8.45;4.85;;;;;;;;;;691873;28;909;-69
2024/03/13 02:06:47;;;;;;;8.40;4.82;;;;;;;;;;687406;28;1918;-70
2024/03/13 02:07:09;;;;;;;8.05;4.90;;;;;;;;;;691340;28;1886;-70
2024/03/13 02:07:30;;;;;;;7.28;4.53;;;;;;;;;;692835;28;802;-69
2024/03/13 02:07:52;;;;;;;7.18;4.47;;;;;;;;;;691579;28;853;-69
2024/03/13 02:08:15;;;;;;;7.63;4.57;;;;;;;;;;689057;28;4522;-70
2024/03/13 02:08:40;;;;;;;7.78;4.60;;;;;;;;;;692697;28;838;-69
2024/03/13 02:09:01;;;;;;;6.93;4.45;;;;;;;;;;692665;28;1057;-69
2024/03/13 02:09:25;;;;;;;7.45;4.25;;;;;;;;;;694197;28;826;-69
2024/03/13 02:09:48;;;;;;;7.85;4.20;;;;;;;;;;693520;28;993;-70
2024/03/13 02:10:09;;;;;;;7.57;4.70;;;;;;;;;;692883;28;1485;-69
2024/03/13 02:10:30;;;;;;;7.40;4.40;;;;;;;;;;695073;28;798;-69
2024/03/13 02:10:57;;;;;;;7.95;4.43;;;;;;;;;;697587;28;817;-69
2024/03/13 02:11:19;;;;;;;7.63;4.13;;;;;;;;;;691387;28;4952;-69
2024/03/13 02:11:39;;;;;;;7.22;4.15;;;;;;;;;;693815;28;963;-70
2024/03/13 02:12:08;;;;;;;7.35;4.50;;;;;;;;;;693732;28;1650;-69
2024/03/13 02:12:30;;;;;;;7.70;4.38;;;;;;;;;;695636;28;929;-70
2024/03/13 02:13:09;;;;;;;6.75;4.10;;;;;;;;;;694774;28;885;-69
2024/03/13 02:13:31;;;;;;;6.93;4.28;;;;;;;;;;696123;28;1086;-69
2024/03/13 02:13:53;;;;;;;7.75;4.22;;;;;;;;;;695116;28;833;-69
2024/03/13 02:14:15;;;;;;;7.18;4.07;;;;;;;;;;694473;28;6501;-70
2024/03/13 02:14:36;;;;;;;7.15;4.20;;;;;;;;;;698256;28;825;-70
2024/03/13 02:14:58;;;;;;;7.13;3.92;;;;;;;;;;697933;28;825;-69
2024/03/13 02:15:18;;;;;;;7.32;4.13;;;;;;;;;;694823;28;998;-69
2024/03/13 02:15:40;;;;;;;6.77;4.03;;;;;;;;;;693660;28;778;-69
2024/03/13 02:16:04;;;;;;;7.20;4.18;;;;;;;;;;690586;28;1448;-69
2024/03/13 02:16:26;;;;;;;7.63;3.95;;;;;;;;;;690359;28;997;-69
2024/03/13 02:16:52;;;;;;;7.18;3.97;;;;;;;;;;691435;28;1010;-69
2024/03/13 02:17:13;;;;;;;6.50;4.10;;;;;;;;;;691553;28;4325;-68
2024/03/13 02:17:37;;;;;;;6.68;3.80;;;;;;;;;;696600;28;940;-68
2024/03/13 02:18:00;;;;;;;7.10;4.00;;;;;;;;;;696530;28;1245;-69
2024/03/13 02:18:23;;;;;;;7.10;3.97;;;;;;;;;;697308;28;907;-68
2024/03/13 02:18:47;;;;;;;7.72;4.15;;;;;;;;;;696732;28;1212;-69
2024/03/13 02:19:07;;;;;;;6.68;3.80;;;;;;;;;;696346;28;969;-68
2024/03/13 02:19:38;;;;;;;6.95;3.90;;;;;;;;;;697497;28;958;-69
2024/03/13 02:19:59;;;;;;;7.60;4.40;;;;;;;;;;694115;28;4275;-69
2024/03/13 02:20:24;;;;;;;7.10;4.00;;;;;;;;;;695949;28;1140;-69
2024/03/13 02:20:46;;;;;;;6.60;3.80;;;;;;;;;;691985;28;1697;-68
2024/03/13 02:21:07;;;;;;;7.35;4.00;;;;;;;;;;689698;28;2258;-68
2024/03/13 02:21:28;;;;;;;7.85;4.25;;;;;;;;;;691002;28;969;-69
2024/03/13 02:21:53;;;;;;;7.32;4.05;;;;;;;;;;691692;28;916;-68
2024/03/13 02:22:14;;;;;;;7.22;4.20;;;;;;;;;;690544;28;1801;-69
2024/03/13 02:22:36;;;;;;;6.70;4.07;;;;;;;;;;692897;28;802;-69
2024/03/13 02:23:02;;;;;;;7.88;3.92;;;;;;;;;;695443;28;4433;-69
2024/03/13 02:23:23;;;;;;;6.85;3.83;;;;;;;;;;696593;28;1039;-69
2024/03/13 02:23:43;;;;;;;6.70;3.90;;;;;;;;;;696011;28;1042;-69
2024/03/13 02:24:05;;;;;;;6.80;3.73;;;;;;;;;;695247;28;1590;-69
2024/03/13 02:24:25;;;;;;;6.57;3.90;;;;;;;;;;696362;28;975;-69
2024/03/13 02:24:45;;;;;;;7.30;3.83;;;;;;;;;;696293;28;904;-69
2024/03/13 02:25:08;;;;;;;7.20;3.95;;;;;;;;;;696963;28;1812;-70
2024/03/13 02:25:31;;;;;;;7.10;3.97;;;;;;;;;;696553;28;1018;-69
2024/03/13 02:25:52;;;;;;;6.85;3.80;;;;;;;;;;697005;28;1046;-69
2024/03/13 02:26:12;;;;;;;6.47;4.00;;;;;;;;;;695876;28;4431;-69
2024/03/13 02:26:32;;;;;;;6.90;4.07;;;;;;;;;;695781;28;1985;-69
2024/03/13 02:26:52;;;;;;;7.78;4.13;;;;;;;;;;697051;28;979;-69
2024/03/13 02:27:13;;;;;;;7.97;4.07;;;;;;;;;;694776;28;1099;-71
2024/03/13 02:27:33;;;;;;;7.13;3.93;;;;;;;;;;694860;28;868;-69
2024/03/13 02:27:53;;;;;;;6.20;3.80;;;;;;;;;;694812;28;778;-70
2024/03/13 02:28:16;;;;;;;6.17;3.53;;;;;;;;;;694918;28;3655;-69
2024/03/13 02:28:37;;;;;;;7.13;3.85;;;;;;;;;;697439;28;1104;-69
2024/03/13 02:28:58;;;;;;;7.93;4.17;;;;;;;;;;696761;28;4376;-69
2024/03/13 02:29:19;;;;;;;7.82;3.90;;;;;;;;;;696651;28;941;-69
2024/03/13 02:29:41;;;;;;;6.82;3.58;;;;;;;;;;696963;28;980;-69
2024/03/13 02:30:01;;;;;;;6.10;3.50;;;;;;;;;;693911;28;2320;-69
2024/03/13 02:30:22;;;;;;;6.30;3.50;;;;;;;;;;698361;28;967;-70
2024/03/13 02:30:43;;;;;;;6.10;3.85;;;;;;;;;;695342;28;1368;-69
2024/03/13 02:31:06;;;;;;;7.30;3.75;;;;;;;;;;695413;28;1499;-70
2024/03/13 02:31:26;;;;;;;6.43;3.55;;;;;;;;;;697297;28;976;-70
2024/03/13 02:31:47;;;;;;;6.50;3.63;;;;;;;;;;698212;28;804;-69
2024/03/13 02:32:07;;;;;;;6.53;3.53;;;;;;;;;;693341;28;4350;-71
2024/03/13 02:32:27;;;;;;;6.17;3.60;;;;;;;;;;695683;28;1012;-70
2024/03/13 02:32:48;;;;;;;6.63;3.65;;;;;;;;;;696647;28;865;-70
2024/03/13 02:33:11;;;;;;;7.40;4.10;;;;;;;;;;694670;28;1520;-70
2024/03/13 02:33:31;;;;;;;6.25;3.65;;;;;;;;;;696576;28;932;-70
2024/03/13 02:33:52;;;;;;;6.00;3.70;;;;;;;;;;697209;28;1342;-69